Time;durP1;ratioP1;P1;durP2;ratioP2;P2;SDS_P1;SDS_P2;PMS_P1;PMS_P2;Temp;Humidity;BMP_temperature;BMP_pressure;BME280_temperature;BME280_humidity;BME280_pressure;Samples;Min_cycle;Max_cycle;Signal;HPM_P1;HPM_P2
2024/04/11 00:01:16;;;;;;;1.27;0.28;;;;;;;5.45;100.00;102112.38;5416924;26;20015;-73
2024/04/11 00:03:47;;;;;;;3.80;0.45;;;;;;;5.37;100.00;102115.53;5428910;26;20016;-74
2024/04/11 00:06:15;;;;;;;2.90;0.40;;;;;;;5.34;100.00;102113.75;5401048;26;20548;-73
2024/04/11 00:08:45;;;;;;;1.23;0.52;;;;;;;5.24;100.00;102117.13;5414130;26;20034;-73
2024/04/11 00:11:13;;;;;;;0.98;0.50;;;;;;;5.22;100.00;102109.34;5440708;26;19999;-73
2024/04/11 00:13:44;;;;;;;1.77;0.50;;;;;;;5.48;100.00;102101.16;5416725;26;20820;-72
2024/04/11 00:16:14;;;;;;;0.90;0.40;;;;;;;5.55;100.00;102097.22;5406799;26;20010;-73
2024/04/11 00:18:44;;;;;;;1.45;0.45;;;;;;;5.63;100.00;102094.78;5431374;26;20068;-72
2024/04/11 00:21:18;;;;;;;0.47;0.32;;;;;;;5.54;100.00;102087.47;5396594;26;20003;-72
2024/04/11 00:23:50;;;;;;;4.03;0.77;;;;;;;5.61;100.00;102089.75;5444988;26;20002;-72
2024/04/11 00:26:18;;;;;;;2.10;0.28;;;;;;;5.50;100.00;102093.16;5439194;26;20012;-73
2024/04/11 00:28:49;;;;;;;7.32;0.90;;;;;;;5.46;100.00;102100.13;5439650;26;19999;-72
2024/04/11 00:31:20;;;;;;;1.27;0.40;;;;;;;5.39;100.00;102102.06;5420283;26;20077;-71
2024/04/11 00:34:12;;;;;;;1.83;0.60;;;;;;;5.28;100.00;102092.91;5451847;26;20003;-71
2024/04/11 00:36:42;;;;;;;1.33;0.40;;;;;;;5.28;100.00;102098.41;5460832;26;20076;-72
2024/04/11 00:39:17;;;;;;;2.17;0.55;;;;;;;5.23;100.00;102101.84;5464353;26;20067;-71
2024/04/11 00:41:45;;;;;;;0.70;0.40;;;;;;;5.16;100.00;102098.25;5397841;26;20014;-72
2024/04/11 00:44:18;;;;;;;3.08;0.70;;;;;;;5.11;100.00;102103.69;5404427;26;20043;-71
2024/04/11 00:46:51;;;;;;;0.40;0.20;;;;;;;5.06;100.00;102094.13;5426119;26;20057;-73
2024/04/11 00:49:22;;;;;;;1.13;0.43;;;;;;;5.00;100.00;102087.81;5439205;26;20081;-72
2024/04/11 00:51:50;;;;;;;0.60;0.20;;;;;;;4.95;100.00;102094.00;5437364;26;20038;-72
2024/04/11 00:54:22;;;;;;;0.85;0.35;;;;;;;4.90;100.00;102097.44;5431995;26;20013;-72
2024/04/11 00:56:50;;;;;;;0.98;0.40;;;;;;;4.85;100.00;102093.38;5423165;26;20040;-72
2024/04/11 00:59:20;;;;;;;2.67;0.90;;;;;;;4.81;100.00;102094.78;5412980;26;20006;-73
2024/04/11 01:01:51;;;;;;;0.82;0.40;;;;;;;4.78;100.00;102104.00;5390810;26;20007;-73
2024/04/11 01:04:22;;;;;;;1.70;0.30;;;;;;;4.76;100.00;102098.22;5437010;26;20003;-73
2024/04/11 01:07:06;;;;;;;0.82;0.30;;;;;;;4.69;100.00;102108.38;5422661;26;20015;-72
2024/04/11 01:09:38;;;;;;;1.40;0.38;;;;;;;4.66;100.00;102103.09;5433841;26;20010;-73
2024/04/11 01:12:07;;;;;;;1.52;0.43;;;;;;;4.59;100.00;102100.72;5432481;26;20019;-74
2024/04/11 01:14:37;;;;;;;1.65;0.25;;;;;;;4.50;100.00;102093.34;5395061;26;20684;-73
2024/04/11 01:17:10;;;;;;;0.85;0.32;;;;;;;4.47;100.00;102102.53;5432604;26;20007;-74
2024/04/11 01:19:41;;;;;;;0.20;0.10;;;;;;;4.46;100.00;102098.28;5390232;26;19999;-74
2024/04/11 01:22:10;;;;;;;2.17;0.70;;;;;;;4.41;100.00;102096.22;5436100;26;20459;-74
2024/04/11 01:24:43;;;;;;;2.27;0.40;;;;;;;4.37;100.00;102101.13;5406026;26;20039;-73
2024/04/11 01:27:13;;;;;;;1.85;1.13;;;;;;;4.38;100.00;102099.91;5384052;26;20000;-73
2024/04/11 01:29:43;;;;;;;1.52;0.40;;;;;;;4.35;100.00;102098.84;5436295;26;20019;-74
2024/04/11 01:32:11;;;;;;;1.15;0.28;;;;;;;4.31;100.00;102096.31;5396611;26;20821;-71
2024/04/11 01:34:41;;;;;;;1.40;0.68;;;;;;;4.30;100.00;102097.56;5430910;26;20038;-73
2024/04/11 01:37:09;;;;;;;1.27;0.40;;;;;;;4.25;100.00;102098.22;5430441;26;20000;-73
2024/04/11 01:39:39;;;;;;;2.00;0.57;;;;;;;4.20;100.00;102093.38;5408781;26;20019;-74
2024/04/11 01:42:10;;;;;;;1.02;0.30;;;;;;;4.14;100.00;102100.78;5446746;26;20007;-74
2024/04/11 01:44:41;;;;;;;1.48;0.47;;;;;;;4.14;100.00;102094.53;5406976;26;20010;-73
2024/04/11 01:47:08;;;;;;;0.68;0.40;;;;;;;4.07;100.00;102092.91;5393024;26;20029;-71
2024/04/11 01:49:39;;;;;;;0.57;0.30;;;;;;;4.01;100.00;102097.56;5425601;26;20003;-73
2024/04/11 01:52:09;;;;;;;1.85;0.85;;;;;;;4.01;100.00;102092.81;5428178;26;20018;-74
2024/04/11 01:54:40;;;;;;;4.30;0.80;;;;;;;4.04;100.00;102091.88;5431749;26;20078;-73
2024/04/11 01:57:11;;;;;;;2.22;0.68;;;;;;;3.99;100.00;102094.53;5431649;26;19999;-72
2024/04/11 01:59:41;;;;;;;6.18;1.13;;;;;;;3.93;100.00;102086.19;5424210;26;20008;-73
2024/04/11 02:02:09;;;;;;;5.35;0.57;;;;;;;3.91;100.00;102094.13;5429839;26;20018;-73
2024/04/11 02:04:39;;;;;;;2.58;0.60;;;;;;;3.88;100.00;102104.09;5423862;26;20003;-73
2024/04/11 02:07:07;;;;;;;0.57;0.30;;;;;;;3.86;100.00;102103.03;5459513;26;20476;-71
2024/04/11 02:09:37;;;;;;;1.50;0.70;;;;;;;3.87;100.00;102097.06;5450746;26;19996;-71
2024/04/11 02:12:06;;;;;;;2.42;0.70;;;;;;;3.90;100.00;102098.09;5425513;26;20038;-71
2024/04/11 02:14:39;;;;;;;3.70;0.63;;;;;;;3.88;100.00;102095.06;5412435;26;20003;-71
2024/04/11 02:17:07;;;;;;;2.05;0.80;;;;;;;3.83;100.00;102098.47;5420057;26;20007;-71
2024/04/11 02:19:39;;;;;;;2.70;1.33;;;;;;;3.92;100.00;102100.38;5412501;26;20014;-71
2024/04/11 02:22:07;;;;;;;10.70;0.73;;;;;;;4.02;100.00;102093.56;5424135;26;20021;-73
2024/04/11 02:24:38;;;;;;;5.82;0.65;;;;;;;4.05;100.00;102095.38;5435931;26;19999;-72
2024/04/11 02:27:08;;;;;;;11.70;0.65;;;;;;;4.06;100.00;102102.38;5457154;26;20756;-72
2024/04/11 02:29:42;;;;;;;2.30;0.73;;;;;;;4.06;100.00;102107.88;5424095;26;20003;-72
2024/04/11 02:32:09;;;;;;;1.63;0.70;;;;;;;4.07;100.00;102101.91;5444882;26;20018;-72
2024/04/11 02:34:40;;;;;;;2.05;0.75;;;;;;;4.06;100.00;102108.63;5455382;26;20013;-72
2024/04/11 02:37:09;;;;;;;0.68;0.38;;;;;;;4.05;100.00;102114.59;5404784;26;20007;-72
2024/04/11 02:39:39;;;;;;;2.33;1.30;;;;;;;4.01;100.00;102125.78;5405817;26;20007;-73
2024/04/11 02:42:07;;;;;;;0.75;0.40;;;;;;;3.98;100.00;102120.47;5439603;26;20084;-73
2024/04/11 02:44:40;;;;;;;2.15;0.50;;;;;;;3.97;100.00;102124.44;5429465;26;20463;-73
2024/04/11 02:47:08;;;;;;;4.55;0.70;;;;;;;4.00;100.00;102129.00;5400144;26;20013;-73
2024/04/11 02:49:40;;;;;;;3.22;0.45;;;;;;;4.04;100.00;102127.56;5442204;26;20047;-73
2024/04/11 02:52:08;;;;;;;1.42;0.52;;;;;;;4.04;100.00;102143.31;5445927;26;19999;-72
2024/04/11 02:54:39;;;;;;;1.17;0.60;;;;;;;3.98;100.00;102142.44;5448835;26;20086;-72
2024/04/11 02:57:07;;;;;;;1.63;0.63;;;;;;;3.93;100.00;102145.84;5422885;26;20011;-72
2024/04/11 02:59:41;;;;;;;2.88;1.00;;;;;;;3.86;100.00;102141.50;5442057;26;20015;-73
2024/04/11 03:02:10;;;;;;;10.55;0.80;;;;;;;3.78;100.00;102140.31;5441250;26;20014;-72
2024/04/11 03:04:42;;;;;;;2.05;0.63;;;;;;;3.71;100.00;102141.47;5430297;26;20085;-71
2024/04/11 03:07:10;;;;;;;1.10;0.43;;;;;;;3.71;100.00;102143.41;5423626;26;20007;-73
2024/04/11 03:09:41;;;;;;;2.88;0.50;;;;;;;3.63;100.00;102143.78;5429130;26;20008;-73
2024/04/11 03:12:09;;;;;;;1.95;0.40;;;;;;;3.64;100.00;102158.28;5431084;26;20015;-73
2024/04/11 03:14:42;;;;;;;3.97;0.90;;;;;;;3.60;100.00;102163.94;5426944;26;20561;-73
2024/04/11 03:17:10;;;;;;;0.55;0.30;;;;;;;3.55;100.00;102167.34;5435069;26;20013;-71
2024/04/11 03:19:40;;;;;;;2.70;0.47;;;;;;;3.57;100.00;102175.13;5431752;26;20013;-71
2024/04/11 03:22:10;;;;;;;2.03;0.40;;;;;;;3.54;100.00;102184.28;5431785;26;20003;-71
2024/04/11 03:24:42;;;;;;;1.92;0.45;;;;;;;3.48;100.00;102184.16;5432160;26;20019;-71
2024/04/11 03:27:10;;;;;;;2.78;0.70;;;;;;;3.44;100.00;102175.34;5429392;26;20010;-71
2024/04/11 03:29:43;;;;;;;1.42;0.60;;;;;;;3.35;100.00;102162.44;5409549;26;19999;-71
2024/04/11 03:32:12;;;;;;;2.33;0.93;;;;;;;3.36;100.00;102174.94;5435360;26;20004;-71
2024/04/11 03:34:42;;;;;;;2.90;1.02;;;;;;;3.29;100.00;102182.75;5458871;26;20014;-71
2024/04/11 03:37:10;;;;;;;1.65;0.47;;;;;;;3.18;100.00;102178.53;5444536;26;20029;-70
2024/04/11 03:39:43;;;;;;;1.90;0.45;;;;;;;3.15;100.00;102178.72;5410859;26;20010;-72
2024/04/11 03:42:14;;;;;;;1.88;0.50;;;;;;;3.10;100.00;102191.06;5430641;26;20004;-71
2024/04/11 03:44:51;;;;;;;0.93;0.40;;;;;;;3.04;100.00;102194.91;5398270;26;20034;-70
2024/04/11 03:47:22;;;;;;;4.50;0.95;;;;;;;3.02;100.00;102187.16;5422122;26;20008;-71
2024/04/11 03:49:54;;;;;;;1.52;0.65;;;;;;;2.99;100.00;102194.34;5426398;26;20739;-71
2024/04/11 03:52:27;;;;;;;1.83;1.00;;;;;;;2.95;100.00;102191.00;5423916;26;20050;-71
2024/04/11 03:54:57;;;;;;;2.15;1.40;;;;;;;2.92;100.00;102200.16;5436968;26;20015;-71
2024/04/11 03:57:25;;;;;;;0.55;0.35;;;;;;;2.87;100.00;102200.78;5400224;26;20006;-72
2024/04/11 04:00:00;;;;;;;1.58;0.77;;;;;;;2.84;100.00;102204.44;5406406;26;20080;-72
2024/04/11 04:02:38;;;;;;;1.13;0.50;;;;;;;2.82;100.00;102198.66;5399252;26;20075;-73
2024/04/11 04:05:11;;;;;;;1.02;0.55;;;;;;;2.76;100.00;102198.50;5432209;26;20651;-72
2024/04/11 04:07:39;;;;;;;9.20;0.88;;;;;;;2.75;100.00;102199.00;5400375;26;20572;-72
2024/04/11 04:10:12;;;;;;;2.65;0.77;;;;;;;2.83;100.00;102196.69;5436307;26;20034;-71
2024/04/11 04:12:40;;;;;;;0.47;0.35;;;;;;;2.82;100.00;102195.16;5450341;26;20002;-71
2024/04/11 04:15:13;;;;;;;4.28;1.02;;;;;;;2.77;100.00;102199.28;5455500;26;20269;-71
2024/04/11 04:17:40;;;;;;;0.90;0.50;;;;;;;2.79;100.00;102199.56;5454246;26;20047;-72
2024/04/11 04:20:12;;;;;;;3.72;0.60;;;;;;;2.79;100.00;102199.56;5438939;26;20638;-72
2024/04/11 04:22:39;;;;;;;1.70;0.70;;;;;;;2.74;100.00;102209.19;5432826;26;20021;-72
2024/04/11 04:25:11;;;;;;;4.63;0.77;;;;;;;2.73;100.00;102201.44;5438939;26;20014;-72
2024/04/11 04:27:39;;;;;;;2.40;0.80;;;;;;;2.73;100.00;102198.69;5435321;26;20553;-72
2024/04/11 04:30:11;;;;;;;4.75;0.70;;;;;;;2.71;100.00;102207.38;5432319;26;20363;-72
2024/04/11 04:32:42;;;;;;;2.35;0.63;;;;;;;2.71;100.00;102201.13;5401239;26;20010;-72
2024/04/11 04:35:13;;;;;;;2.10;0.75;;;;;;;2.69;100.00;102198.09;5437373;26;20007;-71
2024/04/11 04:37:40;;;;;;;1.42;0.55;;;;;;;2.67;100.00;102206.78;5397715;26;20532;-71
2024/04/11 04:40:14;;;;;;;2.42;1.10;;;;;;;2.65;100.00;102198.25;5428521;26;20008;-72
2024/04/11 04:42:43;;;;;;;2.15;0.45;;;;;;;2.67;100.00;102200.53;5399158;26;20003;-72
2024/04/11 04:45:13;;;;;;;3.73;0.87;;;;;;;2.71;100.00;102198.38;5441809;26;20011;-72
2024/04/11 04:47:47;;;;;;;2.88;0.55;;;;;;;2.78;100.00;102201.56;5439369;26;20092;-72
2024/04/11 04:50:18;;;;;;;2.92;0.75;;;;;;;2.93;100.00;102206.38;5425718;26;20023;-72
2024/04/11 04:52:46;;;;;;;2.67;0.80;;;;;;;2.99;100.00;102208.03;5435066;26;20007;-72
2024/04/11 04:55:17;;;;;;;1.80;0.63;;;;;;;3.14;100.00;102194.41;5436586;26;20034;-72
2024/04/11 04:57:45;;;;;;;5.07;1.13;;;;;;;3.19;100.00;102212.22;5434901;26;20075;-72
2024/04/11 05:00:16;;;;;;;6.63;0.80;;;;;;;3.22;100.00;102211.31;5425581;26;20007;-71
2024/04/11 05:02:47;;;;;;;1.73;0.90;;;;;;;3.23;100.00;102218.28;5397306;26;20004;-72
2024/04/11 05:05:18;;;;;;;2.80;0.88;;;;;;;3.18;100.00;102214.19;5430853;26;20018;-72
2024/04/11 05:07:51;;;;;;;10.63;1.13;;;;;;;3.20;100.00;102214.50;5432624;26;20013;-72
2024/04/11 05:10:21;;;;;;;1.33;0.70;;;;;;;3.25;100.00;102217.84;5404878;26;20018;-72
2024/04/11 05:12:49;;;;;;;1.83;0.73;;;;;;;3.27;100.00;102212.66;5398742;26;20021;-72
2024/04/11 05:15:21;;;;;;;5.80;0.98;;;;;;;3.30;100.00;102217.19;5420225;26;20003;-73
2024/04/11 05:17:52;;;;;;;2.47;0.88;;;;;;;3.40;100.00;102222.16;5435797;26;20463;-73
2024/04/11 05:20:27;;;;;;;1.70;0.68;;;;;;;3.55;100.00;102214.00;5434265;26;20002;-73
2024/04/11 05:22:56;;;;;;;1.85;0.98;;;;;;;3.54;100.00;102228.22;5397477;26;20014;-73
2024/04/11 05:25:29;;;;;;;1.55;1.27;;;;;;;3.56;100.00;102228.47;5426547;26;20073;-73
2024/04/11 05:27:57;;;;;;;3.58;1.10;;;;;;;3.59;100.00;102230.31;5362087;26;20019;-72
2024/04/11 05:30:28;;;;;;;1.30;0.68;;;;;;;3.63;100.00;102234.38;5430066;26;20003;-72
2024/04/11 05:32:59;;;;;;;1.90;0.68;;;;;;;3.70;100.00;102238.75;5433717;26;20011;-74
2024/04/11 05:35:30;;;;;;;7.97;1.00;;;;;;;3.75;100.00;102229.88;5433614;26;20007;-74
2024/04/11 05:37:59;;;;;;;2.90;1.10;;;;;;;3.76;100.00;102236.91;5440978;26;20014;-71
2024/04/11 05:40:32;;;;;;;2.53;1.02;;;;;;;3.83;100.00;102233.81;5444144;26;20021;-73
2024/04/11 05:43:00;;;;;;;3.20;1.05;;;;;;;3.95;100.00;102243.00;5443343;26;20011;-71
2024/04/11 05:45:33;;;;;;;4.85;1.17;;;;;;;4.11;100.00;102252.06;5450552;26;20006;-71
2024/04/11 05:48:07;;;;;;;4.10;1.33;;;;;;;4.24;100.00;102261.56;5430963;26;20076;-71
2024/04/11 05:50:41;;;;;;;6.88;1.10;;;;;;;4.41;100.00;102259.13;5424863;26;20011;-71
2024/04/11 05:53:09;;;;;;;1.98;0.82;;;;;;;4.64;100.00;102257.53;5413949;26;20007;-72
2024/04/11 05:55:39;;;;;;;2.85;1.17;;;;;;;4.77;100.00;102259.25;5433741;26;20003;-71
2024/04/11 05:58:07;;;;;;;3.20;1.10;;;;;;;5.02;100.00;102255.94;5394922;26;20014;-70
2024/04/11 06:00:39;;;;;;;4.10;1.23;;;;;;;5.16;100.00;102260.63;5432042;26;20031;-71
2024/04/11 06:03:11;;;;;;;7.18;1.30;;;;;;;5.30;100.00;102252.84;5436345;26;20021;-71
2024/04/11 06:05:43;;;;;;;3.47;1.30;;;;;;;5.45;100.00;102256.28;5433080;26;20003;-71
2024/04/11 06:08:11;;;;;;;2.17;1.08;;;;;;;5.65;100.00;102254.81;5428639;26;20351;-73
2024/04/11 06:10:42;;;;;;;4.32;1.10;;;;;;;5.85;100.00;102252.06;5436542;26;20006;-73
2024/04/11 06:13:11;;;;;;;2.72;1.23;;;;;;;6.10;100.00;102255.38;5408577;26;20010;-71
2024/04/11 06:15:42;;;;;;;1.98;0.75;;;;;;;6.37;100.00;102265.19;5439217;26;20023;-72
2024/04/11 06:18:14;;;;;;;2.78;1.13;;;;;;;6.69;100.00;102271.53;5424883;26;20355;-72
2024/04/11 06:20:46;;;;;;;10.02;1.17;;;;;;;7.02;100.00;102270.28;5433851;26;20086;-72
2024/04/11 06:23:15;;;;;;;4.55;1.25;;;;;;;7.40;100.00;102268.31;5428075;26;20084;-72
2024/04/11 06:25:47;;;;;;;1.77;0.85;;;;;;;7.63;100.00;102280.25;5427244;26;20166;-72
2024/04/11 06:28:15;;;;;;;3.08;1.02;;;;;;;7.92;100.00;102277.13;5423240;26;20018;-72
2024/04/11 06:30:45;;;;;;;1.80;0.80;;;;;;;8.17;100.00;102277.44;5421735;26;20004;-71
2024/04/11 06:33:16;;;;;;;6.15;1.63;;;;;;;8.51;100.00;102283.84;5427204;26;20003;-72
2024/04/11 06:35:51;;;;;;;5.88;1.33;;;;;;;8.82;100.00;102279.34;5439231;26;20003;-72
2024/04/11 06:38:20;;;;;;;3.65;1.50;;;;;;;9.17;100.00;102281.63;5418534;26;20014;-72
2024/04/11 06:40:52;;;;;;;4.18;1.40;;;;;;;9.47;100.00;102279.06;5418266;26;20004;-72
2024/04/11 06:43:21;;;;;;;2.13;0.93;;;;;;;9.60;100.00;102272.22;5395569;26;20079;-72
2024/04/11 06:45:51;;;;;;;4.53;2.38;;;;;;;9.75;100.00;102271.91;5435248;26;20018;-72
2024/04/11 06:48:22;;;;;;;2.28;1.00;;;;;;;9.77;100.00;102272.91;5430936;26;20017;-72
2024/04/11 06:50:53;;;;;;;4.13;1.00;;;;;;;10.07;100.00;102266.75;5392526;26;20007;-72
2024/04/11 06:53:22;;;;;;;6.00;1.30;;;;;;;10.51;100.00;102270.56;5385306;26;20058;-73
2024/04/11 06:55:52;;;;;;;3.50;1.38;;;;;;;10.67;100.00;102264.13;5409939;26;20137;-72
2024/04/11 06:58:23;;;;;;;5.05;1.85;;;;;;;10.95;100.00;102263.91;5390351;26;20008;-72
2024/04/11 07:00:59;;;;;;;8.93;1.20;;;;;;;11.38;100.00;102254.16;5416307;26;20004;-73
2024/04/11 07:03:39;;;;;;;4.68;1.75;;;;;;;11.71;100.00;102257.81;5430226;26;20014;-72
2024/04/11 07:06:10;;;;;;;5.55;2.05;;;;;;;11.23;100.00;102256.59;5440297;26;20022;-73
2024/04/11 07:08:43;;;;;;;2.85;1.48;;;;;;;11.79;100.00;102258.72;5433355;26;20007;-73
2024/04/11 07:11:19;;;;;;;6.95;2.70;;;;;;;11.80;100.00;102257.47;5407949;26;19999;-73
2024/04/11 07:13:56;;;;;;;5.75;1.85;;;;;;;12.08;100.00;102250.81;5438747;26;20017;-73
2024/04/11 07:16:29;;;;;;;4.03;1.83;;;;;;;12.40;100.00;102262.75;5439135;26;20011;-73
2024/04/11 07:19:03;;;;;;;4.75;1.17;;;;;;;12.45;100.00;102266.72;5434988;26;20002;-73
2024/04/11 07:21:34;;;;;;;4.32;1.80;;;;;;;12.79;100.00;102264.16;5426500;26;20087;-73
2024/04/11 07:24:06;;;;;;;9.02;2.03;;;;;;;13.00;100.00;102269.88;5435251;26;20004;-73
2024/04/11 07:26:38;;;;;;;6.43;1.90;;;;;;;13.06;100.00;102267.75;5445632;26;20006;-73
2024/04/11 07:29:10;;;;;;;4.20;1.95;;;;;;;12.95;100.00;102267.19;5432543;26;20023;-73
2024/04/11 07:31:39;;;;;;;11.32;2.13;;;;;;;12.83;100.00;102269.41;5398797;26;20007;-73
2024/04/11 07:34:14;;;;;;;3.20;1.52;;;;;;;13.27;100.00;102272.75;5428612;26;20042;-73
2024/04/11 07:36:48;;;;;;;6.38;2.30;;;;;;;13.54;100.00;102276.28;5425815;26;20003;-73
2024/04/11 07:39:20;;;;;;;5.05;2.25;;;;;;;13.72;100.00;102277.47;5427308;26;20459;-73
2024/04/11 07:41:59;;;;;;;5.07;2.20;;;;;;;13.78;97.10;102286.47;5421102;26;20008;-72
2024/04/11 07:44:31;;;;;;;7.28;2.22;;;;;;;14.12;93.85;102291.34;5423472;26;20734;-72
2024/04/11 07:47:05;;;;;;;5.55;1.95;;;;;;;13.96;93.42;102282.78;5405501;26;20003;-73
2024/04/11 07:49:50;;;;;;;4.82;1.70;;;;;;;14.18;87.11;102289.94;5436695;26;20652;-72
2024/04/11 07:52:18;;;;;;;11.50;2.15;;;;;;;14.07;83.35;102290.19;5439779;26;20003;-73
2024/04/11 07:54:53;;;;;;;6.72;2.25;;;;;;;14.24;80.86;102294.66;5434731;26;20030;-73
2024/04/11 07:57:21;;;;;;;2.92;1.73;;;;;;;14.71;80.69;102296.66;5425149;26;20003;-71
2024/04/11 07:59:55;;;;;;;6.80;1.67;;;;;;;14.68;78.74;102303.31;5461179;26;20014;-72
2024/04/11 08:02:23;;;;;;;7.43;2.15;;;;;;;15.26;83.15;102291.72;5447671;26;20007;-72
2024/04/11 08:04:56;;;;;;;3.47;1.98;;;;;;;15.71;77.13;102292.56;5459770;26;20002;-73
2024/04/11 08:07:23;;;;;;;3.33;1.60;;;;;;;15.72;79.47;102294.06;5462755;26;20085;-73
2024/04/11 08:09:55;;;;;;;3.33;1.40;;;;;;;15.59;79.32;102288.56;5444737;26;20002;-73
2024/04/11 08:12:24;;;;;;;3.00;1.35;;;;;;;15.39;84.42;102293.66;5438732;26;20464;-73
2024/04/11 08:14:54;;;;;;;4.18;2.50;;;;;;;16.03;77.14;102291.41;5426065;26;20007;-73
2024/04/11 08:17:22;;;;;;;7.28;2.28;;;;;;;15.82;80.61;102283.84;5433518;26;20011;-72
2024/04/11 08:19:56;;;;;;;3.83;1.08;;;;;;;15.20;78.75;102293.88;5435477;26;20014;-72
2024/04/11 08:22:27;;;;;;;4.95;1.38;;;;;;;14.94;77.92;102294.81;5411740;26;20140;-73
2024/04/11 08:24:58;;;;;;;5.95;1.25;;;;;;;15.33;77.80;102307.06;5421961;26;20015;-72
2024/04/11 08:27:27;;;;;;;5.35;1.58;;;;;;;15.67;76.40;102311.72;5433347;26;20003;-72
2024/04/11 08:29:57;;;;;;;5.27;1.40;;;;;;;15.43;80.06;102313.63;5434059;26;20007;-73
2024/04/11 08:32:25;;;;;;;5.95;1.20;;;;;;;15.59;77.33;102322.13;5427131;26;20008;-73
2024/04/11 08:35:00;;;;;;;3.65;1.65;;;;;;;15.96;69.92;102326.44;5395564;26;20007;-73
2024/04/11 08:37:28;;;;;;;3.45;1.17;;;;;;;15.84;69.70;102325.28;5421762;26;20002;-72
2024/04/11 08:40:02;;;;;;;6.20;1.15;;;;;;;16.48;70.78;102340.47;5394723;26;20019;-73
2024/04/11 08:42:30;;;;;;;7.00;1.58;;;;;;;16.01;66.14;102336.75;5397975;26;20000;-73
2024/04/11 08:45:00;;;;;;;5.07;1.30;;;;;;;16.36;66.39;102334.44;5433118;26;20003;-73
2024/04/11 08:47:29;;;;;;;4.65;1.75;;;;;;;17.14;71.65;102342.44;5417295;26;19999;-74
2024/04/11 08:50:05;;;;;;;6.45;1.15;;;;;;;17.56;68.07;102330.81;5434006;26;20061;-73
2024/04/11 08:52:36;;;;;;;2.17;1.00;;;;;;;17.82;63.40;102340.13;5440647;26;20007;-73
2024/04/11 08:55:08;;;;;;;3.35;1.35;;;;;;;17.66;62.26;102342.19;5447446;26;20003;-73
2024/04/11 08:57:37;;;;;;;2.60;1.02;;;;;;;17.64;65.58;102330.78;5410468;26;20061;-74
2024/04/11 09:00:12;;;;;;;8.68;2.30;;;;;;;18.01;61.43;102332.00;5400086;26;20014;-74
2024/04/11 09:02:41;;;;;;;2.47;1.08;;;;;;;18.40;58.59;102341.00;5371272;26;20019;-74
2024/04/11 09:05:15;;;;;;;4.13;1.05;;;;;;;18.03;63.75;102337.06;5429090;26;20007;-74
2024/04/11 09:07:44;;;;;;;3.10;1.35;;;;;;;17.56;67.27;102330.81;5438086;26;20010;-74
2024/04/11 09:10:22;;;;;;;4.28;1.10;;;;;;;18.35;60.44;102344.03;5431129;26;20003;-74
2024/04/11 09:12:52;;;;;;;3.90;1.35;;;;;;;18.43;60.47;102339.84;5442808;26;20022;-74
2024/04/11 09:15:22;;;;;;;6.00;1.02;;;;;;;17.86;58.59;102340.47;5437139;26;20008;-74
2024/04/11 09:17:55;;;;;;;4.88;1.60;;;;;;;18.68;62.37;102344.78;5441136;26;20072;-72
2024/04/11 09:20:32;;;;;;;4.65;1.35;;;;;;;19.00;62.87;102343.25;5439393;26;20010;-72
2024/04/11 09:23:01;;;;;;;2.28;1.17;;;;;;;18.96;55.81;102340.09;5418777;26;20007;-72
2024/04/11 09:25:34;;;;;;;3.22;1.20;;;;;;;19.32;58.43;102345.22;5428593;26;20075;-73
2024/04/11 09:28:02;;;;;;;4.22;1.40;;;;;;;19.03;60.21;102339.28;5407733;26;20008;-73
2024/04/11 09:30:34;;;;;;;3.22;1.23;;;;;;;19.15;54.76;102343.13;5439263;26;20546;-73
2024/04/11 09:33:08;;;;;;;1.80;1.00;;;;;;;19.10;57.56;102344.13;5405139;26;20048;-73
2024/04/11 09:35:52;;;;;;;5.57;1.33;;;;;;;19.78;55.49;102341.97;5435890;26;20013;-73
2024/04/11 09:38:22;;;;;;;6.25;1.10;;;;;;;19.40;56.52;102333.91;5395740;26;20694;-76
2024/04/11 09:40:53;;;;;;;2.50;1.23;;;;;;;18.84;57.30;102342.63;5433421;26;20077;-77
2024/04/11 09:43:27;;;;;;;3.78;1.25;;;;;;;20.08;53.81;102346.50;5421774;26;20022;-76
2024/04/11 09:46:06;;;;;;;1.65;0.75;;;;;;;19.55;56.31;102340.13;5392923;26;20018;-77
2024/04/11 09:48:38;;;;;;;6.07;1.35;;;;;;;19.10;61.78;102341.28;5430689;26;20014;-78
2024/04/11 09:51:15;;;;;;;4.13;0.75;;;;;;;18.73;53.24;102340.97;5417205;26;20027;-77
2024/04/11 09:53:43;;;;;;;2.80;1.00;;;;;;;19.48;49.91;102343.00;5429769;26;20481;-78
2024/04/11 09:56:17;;;;;;;3.83;1.42;;;;;;;19.59;51.60;102334.09;5420239;26;20076;-75
2024/04/11 09:58:46;;;;;;;3.15;0.98;;;;;;;19.29;51.76;102332.31;5431878;26;20523;-77
2024/04/11 10:01:29;;;;;;;3.42;0.85;;;;;;;20.11;46.17;102338.97;5395899;26;20013;-77
2024/04/11 10:04:00;;;;;;;2.75;1.00;;;;;;;20.01;48.05;102333.25;5441416;26;20010;-77
2024/04/11 10:06:35;;;;;;;3.13;0.82;;;;;;;20.30;50.08;102335.50;5399315;26;20034;-76
2024/04/11 10:09:11;;;;;;;5.45;0.85;;;;;;;19.88;48.84;102334.34;5439599;26;20018;-77
2024/04/11 10:11:47;;;;;;;3.30;0.85;;;;;;;20.43;45.86;102332.34;5413901;26;20016;-77
2024/04/11 10:14:28;;;;;;;4.53;0.90;;;;;;;20.97;45.49;102329.47;5402898;26;20008;-77
2024/04/11 10:17:04;;;;;;;2.95;0.70;;;;;;;21.12;47.14;102324.91;5437996;26;19999;-77
2024/04/11 10:19:38;;;;;;;3.42;0.93;;;;;;;21.05;45.98;102329.34;5429060;26;20000;-77
2024/04/11 10:22:15;;;;;;;3.22;0.80;;;;;;;21.17;44.33;102326.69;5405220;26;20487;-76
2024/04/11 10:24:49;;;;;;;4.88;1.17;;;;;;;20.91;44.24;102323.34;5434263;26;20003;-77
2024/04/11 10:27:18;;;;;;;2.88;1.00;;;;;;;21.65;41.66;102334.50;5429686;26;19998;-77
2024/04/11 10:29:50;;;;;;;2.83;0.75;;;;;;;21.65;44.11;102328.84;5391500;26;20008;-76
2024/04/11 10:32:22;;;;;;;1.25;0.52;;;;;;;20.75;45.86;102322.13;5436860;26;20002;-76
2024/04/11 10:34:58;;;;;;;4.72;0.80;;;;;;;21.39;45.64;102324.81;5419513;26;20740;-76
2024/04/11 10:37:33;;;;;;;2.13;0.40;;;;;;;21.85;43.51;102321.84;5378999;26;20014;-76
2024/04/11 10:40:03;;;;;;;3.17;0.55;;;;;;;22.28;40.31;102324.94;5430805;26;20007;-76
2024/04/11 10:42:37;;;;;;;3.03;0.60;;;;;;;21.99;38.59;102312.91;5410107;26;20003;-76
2024/04/11 10:45:10;;;;;;;4.00;0.90;;;;;;;21.43;41.50;102311.00;5428698;26;20077;-76
2024/04/11 10:47:39;;;;;;;2.53;0.60;;;;;;;20.94;41.33;102310.88;5422153;26;20007;-77
2024/04/11 10:50:14;;;;;;;2.17;1.23;;;;;;;22.21;40.56;102308.13;5404906;26;20009;-77
2024/04/11 10:52:45;;;;;;;3.40;0.85;;;;;;;22.12;37.21;102313.16;5409472;26;20847;-77
2024/04/11 10:55:28;;;;;;;1.42;0.55;;;;;;;21.38;40.01;102312.75;5423292;26;20737;-77
2024/04/11 10:58:08;;;;;;;3.30;0.40;;;;;;;20.52;38.60;102317.50;5443101;26;20003;-77
2024/04/11 11:03:40;;;;;;;1.08;0.45;;;;;;;20.16;37.99;102307.69;5440730;26;21143;-77
2024/04/11 11:06:13;;;;;;;0.75;0.25;;;;;;;20.57;37.55;102313.72;5406620;26;20010;-76
2024/04/11 11:08:46;;;;;;;3.80;0.90;;;;;;;19.72;39.19;102308.44;5437609;26;20000;-76
2024/04/11 11:11:18;;;;;;;2.20;0.50;;;;;;;20.25;37.88;102302.69;5409865;26;20019;-76
2024/04/11 11:13:52;;;;;;;2.40;0.60;;;;;;;20.32;38.21;102308.22;5408956;26;20039;-76
2024/04/11 11:16:25;;;;;;;2.03;0.50;;;;;;;19.36;46.15;102308.97;5433263;26;20006;-76
2024/04/11 11:18:59;;;;;;;4.25;0.88;;;;;;;19.45;43.66;102310.41;5431972;26;20019;-76
2024/04/11 11:21:34;;;;;;;3.25;0.55;;;;;;;19.85;44.05;102303.78;5433274;26;20003;-76
2024/04/11 11:24:13;;;;;;;5.28;1.27;;;;;;;20.05;43.96;102305.38;5402201;26;20014;-76
2024/04/11 11:26:43;;;;;;;1.55;0.50;;;;;;;20.27;40.14;102305.69;5436861;26;20396;-76
2024/04/11 11:29:20;;;;;;;5.28;1.42;;;;;;;19.91;39.41;102298.66;5398683;26;20352;-76
2024/04/11 11:31:50;;;;;;;2.22;0.60;;;;;;;20.07;39.70;102297.09;5434568;26;20065;-75
2024/04/11 11:34:27;;;;;;;2.35;0.90;;;;;;;19.88;39.69;102292.09;5435892;26;20076;-76
2024/04/11 11:36:59;;;;;;;1.63;0.50;;;;;;;19.50;38.77;102295.31;5440574;26;20021;-75
2024/04/11 11:39:35;;;;;;;2.30;0.65;;;;;;;19.80;40.23;102285.81;5405348;26;20003;-77
2024/04/11 11:42:22;;;;;;;3.70;0.57;;;;;;;19.98;39.22;102295.00;5428450;26;20018;-77
2024/04/11 11:47:45;;;;;;;6.05;0.68;;;;;;;20.75;37.95;102288.28;5424149;26;20003;-76
2024/04/11 11:50:21;;;;;;;1.17;0.35;;;;;;;21.14;37.44;102288.34;5425896;26;20008;-77